createdAt,value
2023-02-02T00:00:23.714Z,60.02
2023-02-02T00:02:50.298Z,59.98
2023-02-02T00:05:16.859Z,59.67
2023-02-02T00:07:43.440Z,61.53
2023-02-02T00:10:10.801Z,61.14
2023-02-02T00:12:37.355Z,62.37
2023-02-02T00:15:04.286Z,61.95
2023-02-02T00:17:30.852Z,63.76
2023-02-02T00:19:57.524Z,60.63
2023-02-02T00:22:24.104Z,62.79
2023-02-02T00:24:50.750Z,63.98
2023-02-02T00:27:17.314Z,64.60
2023-02-02T00:29:43.973Z,62.76
2023-02-02T00:32:11.602Z,59.07
2023-02-02T00:34:38.220Z,62.40
2023-02-02T00:37:05.375Z,60.34
2023-02-02T00:39:32.074Z,62.69
2023-02-02T00:41:58.686Z,62.40
2023-02-02T00:44:57.752Z,61.51
2023-02-02T00:47:25.338Z,60.16
2023-02-02T00:49:51.909Z,59.93
2023-02-02T00:52:18.493Z,60.30
2023-02-02T00:54:45.350Z,61.83
2023-02-02T00:57:15.162Z,61.63
2023-02-02T00:59:42.693Z,61.99
2023-02-02T01:02:12.925Z,61.73
2023-02-02T01:04:39.945Z,60.54
2023-02-02T01:07:06.573Z,61.08
2023-02-02T01:09:33.258Z,60.73
2023-02-02T01:11:59.824Z,61.46
2023-02-02T01:14:26.760Z,60.75
2023-02-02T01:16:55.577Z,60.20
2023-02-02T01:19:22.192Z,64.30
2023-02-02T01:21:48.893Z,65.43
2023-02-02T01:24:15.521Z,66.96
2023-02-02T01:26:42.289Z,67.29
2023-02-02T01:29:08.984Z,67.53
2023-02-02T01:31:35.577Z,67.24
2023-02-02T01:34:02.229Z,64.95
2023-02-02T01:36:30.082Z,63.61
2023-02-02T01:38:56.775Z,62.28
2023-02-02T01:41:26.091Z,63.59
2023-02-02T01:44:01.823Z,63.54
2023-02-02T01:46:29.803Z,63.78
2023-02-02T01:49:18.356Z,63.44
2023-02-02T01:51:55.247Z,62.66
2023-02-02T01:54:44.896Z,61.60
2023-02-02T01:57:23.579Z,61.92
2023-02-02T01:59:53.087Z,61.62
2023-02-02T02:02:19.901Z,61.13
2023-02-02T02:04:50.398Z,61.90
2023-02-02T02:07:18.322Z,59.97
2023-02-02T02:09:44.890Z,61.32
2023-02-02T02:12:16.098Z,58.07
2023-02-02T02:15:08.641Z,59.26
2023-02-02T02:17:35.320Z,60.74
2023-02-02T02:20:55.532Z,60.05
2023-02-02T02:23:52.918Z,59.67
2023-02-02T02:26:58.065Z,60.81
2023-02-02T02:29:54.046Z,60.10
2023-02-02T02:32:42.736Z,60.51
2023-02-02T02:35:31.539Z,65.76
2023-02-02T02:38:25.945Z,67.27
2023-02-02T02:41:04.744Z,66.95
2023-02-02T02:43:37.854Z,65.74
2023-02-02T02:46:05.106Z,64.22
2023-02-02T02:48:31.713Z,64.26
2023-02-02T02:51:28.379Z,66.68
2023-02-02T02:53:56.338Z,67.28
2023-02-02T02:56:39.619Z,67.96
2023-02-02T02:59:30.056Z,67.55
2023-02-02T03:02:17.018Z,65.31
2023-02-02T03:04:52.622Z,66.50
2023-02-02T03:07:26.138Z,65.89
2023-02-02T03:09:55.705Z,64.87
2023-02-02T03:12:22.507Z,65.73
2023-02-02T03:14:49.146Z,66.09
2023-02-02T03:17:15.733Z,65.43
2023-02-02T03:19:42.389Z,66.51
2023-02-02T03:22:09.014Z,65.66
2023-02-02T03:24:35.636Z,64.94
2023-02-02T03:27:02.381Z,63.48
2023-02-02T03:29:29.591Z,63.44
2023-02-02T03:31:56.264Z,63.85
2023-02-02T03:34:22.911Z,61.40
2023-02-02T03:36:49.563Z,62.48
2023-02-02T03:39:16.168Z,63.59
2023-02-02T03:41:42.780Z,62.77
2023-02-02T03:44:09.447Z,63.43
2023-02-02T03:46:36.035Z,60.45
2023-02-02T03:49:02.789Z,61.69
2023-02-02T03:51:29.375Z,62.02
2023-02-02T03:53:56.022Z,62.84
2023-02-02T03:56:22.646Z,62.07
2023-02-02T03:58:49.288Z,60.60
2023-02-02T04:01:15.931Z,60.77
2023-02-02T04:03:42.802Z,64.44
2023-02-02T04:06:09.492Z,64.09
2023-02-02T04:08:36.210Z,64.09
2023-02-02T04:11:02.778Z,62.91
2023-02-02T04:13:29.479Z,63.78
2023-02-02T04:16:00.366Z,63.50
2023-02-02T04:18:28.184Z,63.84
2023-02-02T04:21:01.999Z,62.81
2023-02-02T04:23:29.569Z,61.04
2023-02-02T04:25:56.992Z,59.66
2023-02-02T04:28:24.592Z,62.50
2023-02-02T04:30:52.729Z,62.00
2023-02-02T04:33:20.716Z,62.50
2023-02-02T04:35:47.286Z,61.92
2023-02-02T04:38:14.415Z,60.32
2023-02-02T04:40:42.864Z,59.11
2023-02-02T04:43:10.394Z,60.63
2023-02-02T04:45:37.122Z,59.99
2023-02-02T04:48:04.148Z,61.04
2023-02-02T04:50:31.394Z,63.21
2023-02-02T04:52:58.191Z,63.58
2023-02-02T04:55:25.076Z,60.67
2023-02-02T04:57:51.969Z,61.68
2023-02-02T05:00:18.825Z,62.28
2023-02-02T05:02:45.515Z,63.34
2023-02-02T05:05:14.120Z,61.01
2023-02-02T05:07:41.085Z,61.07
2023-02-02T05:10:09.829Z,63.13
2023-02-02T05:12:36.597Z,62.70
2023-02-02T05:15:05.275Z,63.63
2023-02-02T05:17:32.287Z,61.93
2023-02-02T05:19:59.122Z,61.38
2023-02-02T05:22:25.916Z,62.22
2023-02-02T05:24:52.471Z,65.13
2023-02-02T05:27:19.078Z,64.57
2023-02-02T05:29:47.529Z,64.36
2023-02-02T05:32:14.141Z,61.22
2023-02-02T05:34:40.698Z,60.91
2023-02-02T05:37:07.341Z,63.01
2023-02-02T05:39:33.936Z,64.26
2023-02-02T05:42:00.667Z,65.68
2023-02-02T05:44:27.248Z,62.16
2023-02-02T05:46:53.848Z,63.30
2023-02-02T05:49:20.467Z,66.86
2023-02-02T05:51:50.060Z,66.48
2023-02-02T05:54:20.364Z,65.81
2023-02-02T05:56:48.501Z,65.31
2023-02-02T05:59:15.227Z,66.09
2023-02-02T06:01:41.813Z,64.16
2023-02-02T06:04:08.421Z,64.33
2023-02-02T06:06:35.749Z,63.20
2023-02-02T06:09:02.777Z,62.35
2023-02-02T06:11:29.662Z,63.25
2023-02-02T06:13:56.471Z,60.77
2023-02-02T06:16:23.660Z,62.53
2023-02-02T06:18:50.824Z,61.57
2023-02-02T06:21:19.812Z,60.45
2023-02-02T06:23:46.623Z,62.32
2023-02-02T06:26:13.839Z,68.13
2023-02-02T06:28:40.744Z,68.61
2023-02-02T06:31:09.400Z,68.17
2023-02-02T06:33:36.079Z,66.15
2023-02-02T06:36:04.861Z,66.36
2023-02-02T06:38:31.621Z,64.86
2023-02-02T06:41:02.516Z,63.64
2023-02-02T06:43:30.075Z,61.65
2023-02-02T06:46:00.193Z,63.32
2023-02-02T06:48:27.478Z,64.38
2023-02-02T06:50:54.352Z,62.66
2023-02-02T06:53:23.783Z,62.39
2023-02-02T06:55:57.893Z,63.39
2023-02-02T06:58:24.593Z,63.08
2023-02-02T07:00:51.261Z,64.71
2023-02-02T07:03:21.344Z,64.20
2023-02-02T07:05:50.881Z,67.63
2023-02-02T07:08:17.789Z,69.10
2023-02-02T07:11:09.241Z,68.92
2023-02-02T07:13:31.264Z,66.39
2023-02-02T07:15:58.292Z,64.86
2023-02-02T07:18:25.151Z,65.27
2023-02-02T07:20:51.797Z,64.73
2023-02-02T07:23:18.431Z,65.93
2023-02-02T07:25:45.113Z,65.58
2023-02-02T07:28:11.698Z,64.75
2023-02-02T07:30:38.436Z,65.15
2023-02-02T07:33:05.096Z,63.37
2023-02-02T07:35:31.742Z,63.28
2023-02-02T07:37:58.410Z,63.48
2023-02-02T07:40:25.016Z,67.99
2023-02-02T07:42:51.846Z,69.25
2023-02-02T07:45:27.638Z,69.58
2023-02-02T07:48:01.053Z,67.25
2023-02-02T07:50:29.869Z,65.83
2023-02-02T07:52:58.229Z,64.90
2023-02-02T07:55:24.868Z,65.22
2023-02-02T07:57:55.521Z,63.70
2023-02-02T08:00:23.029Z,63.87
2023-02-02T08:02:49.948Z,62.10
2023-02-02T08:05:16.912Z,64.34
2023-02-02T08:07:44.672Z,63.61
2023-02-02T08:10:11.974Z,61.85
2023-02-02T08:12:38.610Z,63.94
2023-02-02T08:15:05.640Z,64.73
2023-02-02T08:17:32.268Z,62.60
2023-02-02T08:19:58.862Z,62.02
2023-02-02T08:22:25.405Z,62.03
2023-02-02T08:24:52.006Z,62.27
2023-02-02T08:27:18.541Z,62.82
2023-02-02T08:29:46.033Z,65.70
2023-02-02T08:32:12.570Z,65.84
2023-02-02T08:34:40.882Z,66.52
2023-02-02T08:37:07.713Z,67.23
2023-02-02T08:39:34.398Z,67.20
2023-02-02T08:42:00.989Z,65.55
2023-02-02T08:44:28.740Z,64.75
2023-02-02T08:47:14.308Z,64.39
2023-02-02T08:49:42.408Z,63.09
2023-02-02T08:52:09.092Z,64.07
2023-02-02T08:54:41.618Z,61.76
2023-02-02T08:57:16.472Z,63.62
2023-02-02T08:59:45.555Z,64.29
2023-02-02T09:02:13.798Z,64.45
2023-02-02T09:04:42.529Z,63.98
2023-02-02T09:07:09.224Z,64.37
2023-02-02T09:09:35.858Z,64.55
2023-02-02T09:12:02.413Z,62.37
2023-02-02T09:14:29.192Z,62.42
2023-02-02T09:16:55.774Z,63.22
2023-02-02T09:19:22.521Z,63.39
2023-02-02T09:21:50.496Z,63.18
2023-02-02T09:24:17.491Z,62.93
2023-02-02T09:26:45.058Z,61.63
2023-02-02T09:29:16.397Z,61.87
2023-02-02T09:31:43.506Z,63.30
2023-02-02T09:34:12.840Z,61.66
2023-02-02T09:36:40.250Z,60.28
2023-02-02T09:39:07.608Z,60.96
2023-02-02T09:41:37.224Z,62.10
2023-02-02T09:44:39.770Z,62.14
2023-02-02T09:47:12.445Z,60.96
2023-02-02T09:49:53.907Z,61.07
2023-02-02T09:52:32.888Z,60.81
2023-02-02T09:55:04.794Z,62.33
2023-02-02T09:57:39.103Z,61.91
2023-02-02T10:00:16.429Z,61.89
2023-02-02T10:02:46.013Z,61.81
2023-02-02T10:05:19.407Z,60.52
2023-02-02T10:07:51.499Z,60.35
2023-02-02T10:10:26.658Z,62.65
2023-02-02T10:13:00.186Z,62.12
2023-02-02T10:15:35.109Z,61.68
2023-02-02T10:18:20.025Z,62.21
2023-02-02T10:21:13.824Z,62.77
2023-02-02T10:23:44.313Z,61.59
2023-02-02T10:26:25.409Z,60.60
2023-02-02T10:28:58.154Z,60.98
2023-02-02T10:31:34.978Z,62.83
2023-02-02T10:34:08.591Z,60.35
2023-02-02T10:36:56.938Z,61.79
2023-02-02T10:39:28.063Z,61.42
2023-02-02T10:42:16.414Z,62.34
2023-02-02T10:44:58.748Z,60.98
2023-02-02T10:47:31.593Z,61.14
2023-02-02T10:50:15.556Z,61.79
2023-02-02T10:52:47.504Z,61.83
2023-02-02T10:55:14.073Z,61.88
2023-02-02T10:57:58.964Z,62.42
2023-02-02T11:00:47.410Z,62.34
2023-02-02T11:03:17.422Z,62.28
2023-02-02T11:06:02.299Z,62.45
2023-02-02T11:08:35.891Z,62.38
2023-02-02T11:11:19.792Z,62.69
2023-02-02T11:13:53.475Z,62.61
2023-02-02T11:16:22.879Z,63.24
2023-02-02T11:18:49.937Z,62.60
2023-02-02T11:21:23.135Z,61.53
2023-02-02T11:24:16.709Z,62.22
2023-02-02T11:26:50.883Z,61.50
2023-02-02T11:29:41.157Z,62.72
2023-02-02T11:32:29.830Z,62.67
2023-02-02T11:35:02.493Z,62.38
2023-02-02T11:37:30.221Z,62.62
2023-02-02T11:40:24.158Z,62.98
2023-02-02T11:42:52.882Z,61.42
2023-02-02T11:45:35.519Z,61.38
2023-02-02T11:48:14.266Z,61.02
2023-02-02T11:50:46.645Z,61.60
2023-02-02T11:53:27.369Z,59.73
2023-02-02T11:55:56.232Z,60.25
2023-02-02T11:58:27.945Z,60.39
2023-02-02T12:00:58.478Z,60.72
2023-02-02T12:03:48.595Z,62.39
2023-02-02T12:06:24.499Z,62.73
2023-02-02T12:08:56.944Z,62.90
2023-02-02T12:11:55.816Z,62.42
2023-02-02T12:14:32.022Z,62.04
2023-02-02T12:17:18.023Z,62.20
2023-02-02T12:19:52.941Z,61.97
2023-02-02T12:22:41.197Z,62.67
2023-02-02T12:25:36.225Z,62.44
2023-02-02T12:28:58.206Z,61.73
2023-02-02T12:31:37.338Z,61.29
2023-02-02T12:34:25.813Z,60.79
2023-02-02T12:37:26.576Z,62.06
2023-02-02T12:40:21.961Z,61.62
2023-02-02T12:43:04.347Z,60.86
2023-02-02T12:45:40.440Z,60.51
2023-02-02T12:48:34.212Z,61.85
2023-02-02T12:51:17.418Z,60.97
2023-02-02T12:54:33.144Z,61.01
2023-02-02T12:56:55.718Z,61.57
2023-02-02T12:59:48.421Z,60.77
2023-02-02T13:02:38.342Z,60.76
2023-02-02T13:05:31.588Z,60.66
2023-02-02T13:08:10.395Z,60.30
2023-02-02T13:10:42.097Z,60.72
2023-02-02T13:13:14.948Z,60.55
2023-02-02T13:15:49.516Z,60.83
2023-02-02T13:19:08.281Z,61.62
2023-02-02T13:21:37.246Z,59.41
2023-02-02T13:24:12.297Z,59.47
2023-02-02T13:26:43.930Z,60.53
2023-02-02T13:29:10.629Z,60.28
2023-02-02T13:32:00.334Z,60.64
2023-02-02T13:34:34.398Z,60.87
2023-02-02T13:37:11.254Z,60.94
2023-02-02T13:39:47.874Z,60.97
2023-02-02T13:42:30.042Z,61.24
2023-02-02T13:45:03.343Z,60.67
2023-02-02T13:47:48.427Z,60.81
2023-02-02T13:50:20.162Z,60.05
2023-02-02T13:52:58.507Z,61.15
2023-02-02T13:55:41.050Z,61.23
2023-02-02T13:58:17.004Z,61.83
2023-02-02T14:00:49.202Z,61.44
2023-02-02T14:03:29.036Z,62.17
2023-02-02T14:06:09.925Z,62.03
2023-02-02T14:08:37.506Z,62.17
2023-02-02T14:11:07.704Z,62.48
2023-02-02T14:14:01.777Z,62.74
2023-02-02T14:16:31.922Z,61.88
2023-02-02T14:19:09.544Z,61.55
2023-02-02T14:21:36.466Z,61.55
2023-02-02T14:24:24.709Z,62.34
2023-02-02T14:27:13.176Z,60.96
2023-02-02T14:29:52.893Z,60.72
2023-02-02T14:32:27.633Z,62.30
2023-02-02T14:35:13.789Z,61.83
2023-02-02T14:38:05.945Z,61.85
2023-02-02T14:40:58.729Z,61.46
2023-02-02T14:43:49.638Z,62.46
2023-02-02T14:46:23.994Z,61.79
2023-02-02T14:48:53.595Z,61.85
2023-02-02T14:51:29.160Z,61.93
2023-02-02T14:54:03.223Z,61.25
2023-02-02T14:56:51.647Z,61.71
2023-02-02T14:59:38.770Z,60.49
2023-02-02T15:02:32.725Z,62.09
2023-02-02T15:05:32.823Z,63.16
2023-02-02T15:08:21.860Z,61.69
2023-02-02T15:10:50.191Z,62.06
2023-02-02T15:13:19.085Z,62.05
2023-02-02T15:15:49.655Z,62.60
2023-02-02T15:18:22.538Z,62.43
2023-02-02T15:20:50.805Z,59.64
2023-02-02T15:23:42.400Z,61.80
2023-02-02T15:26:30.905Z,61.80
2023-02-02T15:29:01.397Z,62.07
2023-02-02T15:31:35.389Z,62.19
2023-02-02T15:34:16.079Z,61.77
2023-02-02T15:36:46.531Z,62.30
2023-02-02T15:39:33.711Z,62.46
2023-02-02T15:42:23.197Z,61.93
2023-02-02T15:44:49.863Z,63.92
2023-02-02T15:47:20.078Z,64.11
2023-02-02T15:49:46.741Z,63.95
2023-02-02T15:52:16.977Z,62.57
2023-02-02T15:54:57.808Z,62.58
2023-02-02T15:57:34.156Z,62.56
2023-02-02T16:00:21.981Z,63.87
2023-02-02T16:02:53.579Z,63.17
2023-02-02T16:05:32.513Z,61.93
2023-02-02T16:08:06.940Z,61.76
2023-02-02T16:10:35.130Z,61.42
2023-02-02T16:13:02.311Z,61.81
2023-02-02T16:15:31.920Z,62.29
2023-02-02T16:18:05.380Z,62.78
2023-02-02T16:20:35.612Z,62.61
2023-02-02T16:23:06.020Z,62.58
2023-02-02T16:25:36.792Z,62.57
2023-02-02T16:28:04.045Z,62.58
2023-02-02T16:30:35.689Z,63.40
2023-02-02T16:33:28.792Z,62.59
2023-02-02T16:35:56.570Z,62.96
2023-02-02T16:38:25.046Z,62.09
2023-02-02T16:41:13.209Z,62.23
2023-02-02T16:43:42.195Z,63.19
2023-02-02T16:46:15.259Z,62.45
2023-02-02T16:48:59.329Z,63.31
2023-02-02T16:51:32.881Z,61.72
2023-02-02T16:54:06.563Z,63.62
2023-02-02T16:56:36.122Z,64.65
2023-02-02T16:59:15.384Z,65.07
2023-02-02T17:01:50.080Z,63.44
2023-02-02T17:04:27.314Z,64.90
2023-02-02T17:06:56.928Z,62.75
2023-02-02T17:09:27.525Z,62.76
2023-02-02T17:11:57.787Z,62.97
2023-02-02T17:14:33.280Z,63.33
2023-02-02T17:17:00.009Z,62.32
2023-02-02T17:19:29.706Z,62.79
2023-02-02T17:21:58.578Z,65.05
2023-02-02T17:24:25.442Z,67.24
2023-02-02T17:26:52.294Z,67.10
2023-02-02T17:29:20.151Z,64.56
2023-02-02T17:31:46.921Z,68.13
2023-02-02T17:34:15.036Z,69.39
2023-02-02T17:36:42.724Z,68.39
2023-02-02T17:39:11.684Z,65.95
2023-02-02T17:41:39.234Z,66.86
2023-02-02T17:44:06.867Z,64.83
2023-02-02T17:46:35.118Z,64.04
2023-02-02T17:49:02.115Z,63.21
2023-02-02T17:51:30.721Z,64.21
2023-02-02T17:54:00.370Z,64.52
2023-02-02T17:56:27.476Z,64.34
2023-02-02T17:58:54.328Z,64.81
2023-02-02T18:01:21.336Z,65.29
2023-02-02T18:03:48.359Z,65.24
2023-02-02T18:06:15.084Z,63.68
2023-02-02T18:08:41.939Z,63.93
2023-02-02T18:11:11.555Z,64.46
2023-02-02T18:13:38.529Z,64.12
2023-02-02T18:16:06.782Z,63.27
2023-02-02T18:18:33.475Z,65.19
2023-02-02T18:21:00.100Z,66.45
2023-02-02T18:23:27.135Z,66.56
2023-02-02T18:25:54.100Z,64.36
2023-02-02T18:28:20.846Z,64.44
2023-02-02T18:30:47.621Z,64.02
2023-02-02T18:33:17.836Z,64.10
2023-02-02T18:35:46.702Z,63.29
2023-02-02T18:38:14.630Z,63.90
2023-02-02T18:40:41.552Z,63.90
2023-02-02T18:43:08.912Z,64.08
2023-02-02T18:45:36.568Z,64.70
2023-02-02T18:48:03.792Z,62.71
2023-02-02T18:50:30.508Z,63.91
2023-02-02T18:52:57.155Z,64.32
2023-02-02T18:55:24.395Z,63.69
2023-02-02T18:57:51.308Z,64.18
2023-02-02T19:00:19.224Z,65.96
2023-02-02T19:02:45.953Z,66.48
2023-02-02T19:05:31.513Z,66.82
2023-02-02T19:07:59.073Z,64.75
2023-02-02T19:10:27.586Z,64.59
2023-02-02T19:13:03.263Z,64.82
2023-02-02T19:15:37.242Z,63.95
2023-02-02T19:18:14.033Z,62.75
2023-02-02T19:20:41.266Z,63.23
2023-02-02T19:23:25.580Z,64.36
2023-02-02T19:25:54.588Z,64.90
2023-02-02T19:28:28.000Z,66.23
2023-02-02T19:30:56.975Z,66.02
2023-02-02T19:33:39.362Z,66.43
2023-02-02T19:36:13.366Z,65.61
2023-02-02T19:38:40.503Z,65.02
2023-02-02T19:41:24.709Z,63.47
2023-02-02T19:43:59.046Z,63.70
2023-02-02T19:46:27.101Z,62.70
2023-02-02T19:49:06.254Z,63.30
2023-02-02T19:51:45.489Z,63.82
2023-02-02T19:54:29.388Z,64.07
2023-02-02T19:57:07.717Z,63.83
2023-02-02T19:59:35.656Z,62.75
2023-02-02T20:02:39.230Z,62.51
2023-02-02T20:05:12.484Z,63.23
2023-02-02T20:07:39.786Z,63.99
2023-02-02T20:10:24.956Z,65.21
2023-02-02T20:12:52.950Z,63.66
2023-02-02T20:15:33.814Z,63.24
2023-02-02T20:18:03.828Z,64.17
2023-02-02T20:20:41.913Z,62.90
2023-02-02T20:23:36.480Z,62.74
2023-02-02T20:26:15.819Z,62.52
2023-02-02T20:28:46.110Z,63.49
2023-02-02T20:31:16.471Z,64.66
2023-02-02T20:34:17.687Z,64.08
2023-02-02T20:36:44.803Z,63.46
2023-02-02T20:39:33.798Z,64.64
2023-02-02T20:42:03.879Z,64.79
2023-02-02T20:44:33.105Z,64.48
2023-02-02T20:47:00.656Z,65.67
2023-02-02T20:49:31.773Z,66.73
2023-02-02T20:52:01.997Z,65.10
2023-02-02T20:54:29.131Z,64.22
2023-02-02T20:56:56.323Z,63.48
2023-02-02T20:59:23.082Z,63.54
2023-02-02T21:01:50.639Z,64.24
2023-02-02T21:04:18.759Z,66.14
2023-02-02T21:06:48.969Z,65.41
2023-02-02T21:09:16.787Z,63.57
2023-02-02T21:11:44.419Z,64.57
2023-02-02T21:14:11.601Z,64.40
2023-02-02T21:16:38.874Z,64.20
2023-02-02T21:19:05.831Z,64.00
2023-02-02T21:21:32.526Z,63.30
2023-02-02T21:24:00.825Z,64.21
2023-02-02T21:26:30.263Z,63.74
2023-02-02T21:28:58.313Z,65.27
2023-02-02T21:31:26.137Z,63.83
2023-02-02T21:33:53.810Z,64.63
2023-02-02T21:36:28.211Z,64.64
2023-02-02T21:39:21.670Z,62.77
2023-02-02T21:42:09.587Z,63.63
2023-02-02T21:44:39.596Z,63.50
2023-02-02T21:47:26.429Z,63.05
2023-02-02T21:49:55.865Z,62.33
2023-02-02T21:52:22.925Z,63.93
2023-02-02T21:54:49.714Z,65.92
2023-02-02T21:57:20.748Z,66.05
2023-02-02T21:59:54.173Z,66.68
2023-02-02T22:02:39.730Z,65.43
2023-02-02T22:05:22.426Z,64.74
2023-02-02T22:07:50.702Z,65.53
2023-02-02T22:10:20.408Z,65.88
2023-02-02T22:12:47.052Z,65.14
2023-02-02T22:15:20.802Z,63.41
2023-02-02T22:17:48.206Z,64.76
2023-02-02T22:20:14.715Z,62.32
2023-02-02T22:22:45.575Z,62.20
2023-02-02T22:25:18.220Z,63.31
2023-02-02T22:27:57.628Z,63.10
2023-02-02T22:30:33.146Z,65.02
2023-02-02T22:32:59.880Z,64.63
2023-02-02T22:35:26.600Z,64.95
2023-02-02T22:37:53.547Z,65.05
2023-02-02T22:40:24.101Z,64.58
2023-02-02T22:43:09.378Z,66.75
2023-02-02T22:45:36.099Z,67.08
2023-02-02T22:48:02.813Z,66.85
2023-02-02T22:50:31.098Z,67.08
2023-02-02T22:52:58.125Z,66.43
2023-02-02T22:55:25.171Z,65.86
2023-02-02T22:57:52.038Z,65.81
2023-02-02T23:00:21.371Z,66.15
2023-02-02T23:02:48.761Z,65.62
2023-02-02T23:05:18.231Z,64.13
2023-02-02T23:07:45.346Z,63.22
2023-02-02T23:10:20.862Z,63.92
2023-02-02T23:12:48.463Z,63.85
2023-02-02T23:15:16.333Z,65.47
2023-02-02T23:17:43.063Z,66.87
2023-02-02T23:20:13.172Z,68.28
2023-02-02T23:22:40.397Z,67.14
2023-02-02T23:25:07.534Z,65.57
2023-02-02T23:27:34.228Z,66.96
2023-02-02T23:30:00.797Z,65.32
2023-02-02T23:32:27.564Z,64.57
2023-02-02T23:34:54.266Z,65.36
2023-02-02T23:37:21.128Z,66.32
2023-02-02T23:39:48.082Z,66.46
2023-02-02T23:42:14.821Z,66.07
2023-02-02T23:44:41.489Z,65.10
2023-02-02T23:47:09.354Z,64.48
2023-02-02T23:49:36.528Z,65.36
2023-02-02T23:52:03.832Z,65.30
2023-02-02T23:54:31.283Z,64.78
2023-02-02T23:56:58.589Z,65.48
2023-02-02T23:59:25.249Z,64.87
